Time;durP1;ratioP1;P1;durP2;ratioP2;P2;SDS_P1;SDS_P2;PMS_P1;PMS_P2;Temp;Humidity;BMP_temperature;BMP_pressure;BME280_temperature;BME280_humidity;BME280_pressure;Samples;Min_cycle;Max_cycle;Signal;HPM_P1;HPM_P2
2023/08/03 00:00:32;;;;;;;1.30;1.20;;;24.90;68.70;;;;;;5019027;28;20466;-81
2023/08/03 00:03:01;;;;;;;3.77;1.50;;;24.90;68.50;;;;;;5021315;28;20506;-81
2023/08/03 00:05:29;;;;;;;1.40;1.30;;;24.90;68.70;;;;;;5022838;28;20471;-82
2023/08/03 00:07:57;;;;;;;2.63;1.30;;;24.90;68.50;;;;;;5022425;28;20918;-82
2023/08/03 00:10:26;;;;;;;1.43;1.10;;;24.90;68.70;;;;;;5023207;28;20434;-81
2023/08/03 00:12:54;;;;;;;1.50;1.40;;;24.90;68.70;;;;;;5022914;28;20451;-82
2023/08/03 00:15:22;;;;;;;1.43;1.30;;;24.90;68.80;;;;;;5022875;28;20510;-81
2023/08/03 00:17:50;;;;;;;1.20;1.20;;;24.90;68.70;;;;;;5023245;28;20438;-80
2023/08/03 00:20:18;;;;;;;2.17;1.40;;;24.90;68.60;;;;;;5022684;28;20471;-82
2023/08/03 00:22:46;;;;;;;2.13;1.27;;;24.80;68.60;;;;;;5015067;28;20411;-80
2023/08/03 00:25:14;;;;;;;2.43;1.40;;;24.80;68.50;;;;;;5022546;28;20506;-81
2023/08/03 00:27:43;;;;;;;1.80;1.60;;;24.80;68.60;;;;;;5022965;28;20442;-82
2023/08/03 00:30:12;;;;;;;2.87;1.20;;;24.80;68.60;;;;;;5018893;28;20460;-81
2023/08/03 00:32:39;;;;;;;2.03;1.40;;;24.80;68.50;;;;;;5022692;28;20536;-81
2023/08/03 00:35:08;;;;;;;2.13;1.30;;;24.80;68.40;;;;;;5022455;28;20502;-82
2023/08/03 00:37:38;;;;;;;1.57;1.27;;;24.80;68.60;;;;;;5022491;28;20445;-79
2023/08/03 00:40:07;;;;;;;1.57;1.40;;;24.80;68.50;;;;;;5025918;28;20480;-81
2023/08/03 00:42:35;;;;;;;1.27;1.17;;;24.80;68.40;;;;;;5024449;28;20464;-81
2023/08/03 00:45:06;;;;;;;1.70;1.30;;;24.80;68.50;;;;;;5021940;28;20436;-82
2023/08/03 00:47:33;;;;;;;2.13;1.27;;;24.80;68.40;;;;;;5022629;28;20407;-82
2023/08/03 00:50:02;;;;;;;1.83;0.90;;;24.80;68.40;;;;;;5023142;28;20437;-83
2023/08/03 00:52:30;;;;;;;2.83;1.40;;;24.80;68.40;;;;;;5021851;28;20490;-81
2023/08/03 00:54:57;;;;;;;1.83;1.07;;;24.80;68.50;;;;;;5022716;28;20462;-82
2023/08/03 00:57:26;;;;;;;1.17;1.07;;;24.70;68.40;;;;;;5021046;28;20487;-83
2023/08/03 00:59:53;;;;;;;1.47;1.13;;;24.80;68.40;;;;;;5024024;28;20475;-81
2023/08/03 01:02:23;;;;;;;1.43;1.10;;;24.80;68.50;;;;;;5028801;28;20781;-81
2023/08/03 01:04:50;;;;;;;2.50;1.20;;;24.70;68.40;;;;;;5026560;28;20527;-81
2023/08/03 01:07:21;;;;;;;2.33;1.20;;;24.80;68.50;;;;;;5025406;28;20458;-81
2023/08/03 01:09:49;;;;;;;1.40;1.30;;;24.70;68.20;;;;;;5017848;28;20474;-81
2023/08/03 01:12:17;;;;;;;1.90;1.30;;;24.80;68.30;;;;;;5015798;28;20466;-82
2023/08/03 01:14:45;;;;;;;1.40;1.30;;;24.80;68.30;;;;;;5015479;28;20437;-80
2023/08/03 01:17:13;;;;;;;3.70;1.20;;;24.80;68.50;;;;;;5015568;28;20440;-80
2023/08/03 01:19:42;;;;;;;1.10;1.00;;;24.80;68.20;;;;;;5015909;28;20511;-81
2023/08/03 01:22:10;;;;;;;1.90;1.13;;;24.80;68.20;;;;;;5015164;28;20510;-80
2023/08/03 01:24:40;;;;;;;2.20;1.70;;;24.70;68.20;;;;;;5014396;28;20419;-80
2023/08/03 01:27:08;;;;;;;2.20;1.40;;;24.80;68.40;;;;;;5014429;28;20432;-82
2023/08/03 01:29:35;;;;;;;1.70;1.60;;;24.70;68.20;;;;;;5016494;28;20443;-82
2023/08/03 01:32:04;;;;;;;2.53;1.60;;;24.70;68.20;;;;;;5018953;28;20475;-83
2023/08/03 01:34:32;;;;;;;1.57;1.47;;;24.70;68.20;;;;;;5018609;28;20490;-82
2023/08/03 01:36:59;;;;;;;3.27;1.67;;;24.70;68.20;;;;;;5019769;28;20429;-83
2023/08/03 01:39:27;;;;;;;2.10;1.50;;;24.70;68.30;;;;;;5018862;28;20455;-82
2023/08/03 01:41:57;;;;;;;4.70;2.17;;;24.70;68.30;;;;;;5019325;28;20480;-82
2023/08/03 01:44:25;;;;;;;4.00;2.70;;;24.70;68.30;;;;;;5015343;28;21002;-80
2023/08/03 01:46:53;;;;;;;6.50;2.20;;;24.70;68.20;;;;;;5018734;28;20439;-82
2023/08/03 01:49:21;;;;;;;2.23;2.03;;;24.70;68.40;;;;;;5018823;28;20516;-82
2023/08/03 01:51:49;;;;;;;3.23;2.20;;;24.70;68.40;;;;;;5018490;28;20531;-82
2023/08/03 01:54:17;;;;;;;2.90;1.93;;;24.70;68.20;;;;;;5018489;28;20428;-82
2023/08/03 01:56:45;;;;;;;1.87;1.77;;;24.70;68.30;;;;;;5018990;28;20527;-83
2023/08/03 01:59:14;;;;;;;2.00;1.90;;;24.70;68.00;;;;;;5017423;28;20548;-82
2023/08/03 02:01:41;;;;;;;7.00;2.27;;;24.70;68.30;;;;;;5019237;28;20418;-81
2023/08/03 02:04:10;;;;;;;2.23;2.10;;;24.70;68.30;;;;;;5018669;28;20503;-82
2023/08/03 02:06:38;;;;;;;1.80;1.60;;;24.60;68.30;;;;;;5018200;28;20444;-82
2023/08/03 02:09:06;;;;;;;2.37;2.17;;;24.60;68.30;;;;;;5017428;28;20937;-82
2023/08/03 02:11:35;;;;;;;2.13;1.97;;;24.60;68.30;;;;;;5018605;28;20433;-81
2023/08/03 02:14:03;;;;;;;4.77;2.20;;;24.60;68.30;;;;;;5017984;28;20446;-82
2023/08/03 02:16:32;;;;;;;2.73;2.07;;;24.60;68.30;;;;;;5017545;28;20457;-82
2023/08/03 02:19:00;;;;;;;2.43;2.20;;;24.60;68.30;;;;;;5010619;28;20452;-82
2023/08/03 02:21:28;;;;;;;2.23;2.00;;;24.60;68.80;;;;;;5018362;28;20487;-83
2023/08/03 02:23:56;;;;;;;2.60;1.97;;;24.60;68.30;;;;;;5018185;28;20506;-82
2023/08/03 02:26:24;;;;;;;2.33;1.77;;;24.60;69.10;;;;;;5018012;28;20528;-82
2023/08/03 02:28:52;;;;;;;2.80;2.20;;;24.60;68.30;;;;;;5017975;28;21037;-82
2023/08/03 02:31:20;;;;;;;2.60;2.40;;;24.60;68.30;;;;;;5018141;28;20525;-82
2023/08/03 02:33:50;;;;;;;3.60;2.00;;;24.60;68.30;;;;;;5013308;28;20481;-82
2023/08/03 02:36:17;;;;;;;2.87;2.20;;;24.60;68.20;;;;;;5017895;28;20411;-82
2023/08/03 02:38:45;;;;;;;1.97;1.83;;;24.60;68.20;;;;;;5018629;28;20536;-82
2023/08/03 02:41:13;;;;;;;3.10;2.20;;;24.60;68.00;;;;;;5017652;28;20454;-83
2023/08/03 02:43:41;;;;;;;1.93;1.80;;;24.60;68.40;;;;;;5017676;28;20528;-81
2023/08/03 02:46:09;;;;;;;1.80;1.70;;;24.60;68.30;;;;;;5018556;28;20429;-82
2023/08/03 02:48:37;;;;;;;3.83;1.97;;;24.60;68.40;;;;;;5016221;28;20432;-82
2023/08/03 02:51:06;;;;;;;2.13;2.00;;;24.60;68.40;;;;;;5026821;23;21078;-82
2023/08/03 02:53:35;;;;;;;2.43;1.90;;;24.60;68.60;;;;;;5000068;28;20420;-82
2023/08/03 02:56:03;;;;;;;2.53;2.23;;;24.60;68.50;;;;;;5001071;28;21035;-82
2023/08/03 02:58:32;;;;;;;2.10;1.80;;;24.60;68.20;;;;;;5000888;28;20449;-82
2023/08/03 03:01:04;;;;;;;2.37;2.10;;;24.60;68.40;;;;;;5001226;28;20477;-82
2023/08/03 03:03:33;;;;;;;2.63;1.93;;;24.60;68.40;;;;;;5004833;28;20829;-82
2023/08/03 03:06:03;;;;;;;5.13;2.03;;;24.60;68.40;;;;;;5001376;28;20443;-82
2023/08/03 03:08:32;;;;;;;2.00;1.80;;;24.60;68.30;;;;;;5004606;28;20466;-82
2023/08/03 03:11:01;;;;;;;2.23;2.10;;;24.60;68.30;;;;;;5001670;28;20489;-81
2023/08/03 03:13:29;;;;;;;2.23;2.03;;;24.50;68.10;;;;;;5001249;28;20420;-82
2023/08/03 03:15:58;;;;;;;2.07;1.87;;;24.60;68.40;;;;;;5000214;28;20435;-83
2023/08/03 03:18:26;;;;;;;2.07;1.70;;;24.60;68.30;;;;;;5001166;28;20445;-82
2023/08/03 03:20:55;;;;;;;2.90;1.90;;;24.60;68.10;;;;;;5000024;28;20473;-82
2023/08/03 03:23:26;;;;;;;1.57;1.47;;;24.50;68.20;;;;;;4998618;28;20439;-83
2023/08/03 03:25:56;;;;;;;4.07;2.00;;;24.50;68.10;;;;;;5007792;28;20479;-82
2023/08/03 03:28:24;;;;;;;1.67;1.57;;;24.60;68.40;;;;;;5006751;28;20424;-81
2023/08/03 03:30:52;;;;;;;5.90;1.97;;;24.50;68.10;;;;;;4999311;28;20505;-82
2023/08/03 03:33:20;;;;;;;2.90;1.97;;;24.50;68.10;;;;;;4999757;28;20438;-82
2023/08/03 03:35:48;;;;;;;1.80;1.70;;;24.50;68.20;;;;;;4999540;28;20478;-82
2023/08/03 03:38:16;;;;;;;1.90;1.80;;;24.50;68.10;;;;;;4999710;28;20419;-82
2023/08/03 03:40:46;;;;;;;1.70;1.57;;;24.50;68.00;;;;;;4999607;28;20519;-82
2023/08/03 03:43:16;;;;;;;2.20;1.90;;;24.50;67.60;;;;;;4999352;28;20441;-82
2023/08/03 03:45:45;;;;;;;2.07;1.93;;;24.50;68.10;;;;;;5014672;28;20475;-81
2023/08/03 03:48:15;;;;;;;1.93;1.73;;;24.50;68.10;;;;;;4999040;28;20456;-82
2023/08/03 03:50:43;;;;;;;1.83;1.73;;;24.50;68.20;;;;;;5000757;28;20467;-83
2023/08/03 03:53:12;;;;;;;1.70;1.60;;;24.50;68.10;;;;;;5000347;28;20469;-82
2023/08/03 03:55:41;;;;;;;1.97;1.87;;;24.50;68.10;;;;;;4999493;28;20478;-83
2023/08/03 03:58:09;;;;;;;1.80;1.63;;;24.50;68.10;;;;;;4999391;28;20449;-82
2023/08/03 04:00:43;;;;;;;2.80;2.00;;;24.50;68.10;;;;;;5008289;28;20469;-82
2023/08/03 04:03:14;;;;;;;1.67;1.53;;;24.50;68.00;;;;;;5000428;28;20441;-83
2023/08/03 04:05:47;;;;;;;1.93;1.40;;;24.50;68.10;;;;;;4999681;28;20508;-83
2023/08/03 04:08:24;;;;;;;3.00;2.00;;;24.50;67.80;;;;;;4988188;28;20428;-83
2023/08/03 04:10:59;;;;;;;2.60;1.87;;;24.50;68.00;;;;;;4997537;28;20443;-83
2023/08/03 04:13:31;;;;;;;3.23;1.70;;;24.50;68.10;;;;;;4997153;28;20445;-84
2023/08/03 04:16:11;;;;;;;1.90;1.80;;;24.50;68.00;;;;;;5000863;28;20457;-82
2023/08/03 04:18:49;;;;;;;1.70;1.60;;;24.50;68.00;;;;;;5002088;28;20449;-84
2023/08/03 04:21:24;;;;;;;1.93;1.83;;;24.50;68.00;;;;;;4993366;28;20520;-83
2023/08/03 04:23:56;;;;;;;3.57;1.40;;;24.50;68.00;;;;;;4999283;28;20431;-83
2023/08/03 04:26:30;;;;;;;1.60;1.50;;;24.50;68.00;;;;;;5000311;28;20472;-84
2023/08/03 04:29:13;;;;;;;2.17;1.50;;;24.50;68.00;;;;;;5002004;28;20457;-83
2023/08/03 04:31:55;;;;;;;2.20;1.90;;;24.50;68.00;;;;;;5004407;28;20547;-83
2023/08/03 04:34:28;;;;;;;1.60;1.50;;;24.50;68.10;;;;;;4999962;28;20424;-82
2023/08/03 04:40:07;;;;;;;1.20;1.20;;;24.50;68.00;;;;;;5010206;28;20465;-82
2023/08/03 04:42:42;;;;;;;1.80;1.70;;;24.60;68.00;;;;;;5010893;28;20467;-83
2023/08/03 04:45:13;;;;;;;1.47;1.37;;;24.60;68.00;;;;;;5006088;28;20461;-83
2023/08/03 04:47:48;;;;;;;2.03;1.93;;;24.60;67.80;;;;;;5001233;28;20423;-83
2023/08/03 04:50:19;;;;;;;1.53;1.30;;;24.60;67.70;;;;;;4994908;28;20469;-82
2023/08/03 04:52:49;;;;;;;1.43;1.33;;;24.60;67.80;;;;;;5001964;28;20452;-81
2023/08/03 04:55:18;;;;;;;1.40;1.40;;;24.60;67.70;;;;;;5001908;28;20434;-82
2023/08/03 04:57:52;;;;;;;1.33;1.23;;;24.60;67.80;;;;;;5002960;28;20540;-83
2023/08/03 05:00:26;;;;;;;2.40;1.47;;;24.60;67.60;;;;;;4986859;28;20566;-82
2023/08/03 05:02:59;;;;;;;1.70;1.60;;;24.60;67.50;;;;;;5002010;28;20459;-83
2023/08/03 05:05:30;;;;;;;2.40;1.07;;;24.60;67.90;;;;;;5006883;28;20448;-82
2023/08/03 05:08:03;;;;;;;1.40;1.40;;;24.60;67.70;;;;;;5001693;28;20445;-82
2023/08/03 05:10:32;;;;;;;1.60;1.50;;;24.60;67.60;;;;;;5002623;28;20511;-82
2023/08/03 05:13:03;;;;;;;1.63;1.53;;;24.60;67.50;;;;;;5001804;28;20515;-84
2023/08/03 05:15:33;;;;;;;1.60;1.50;;;24.60;67.60;;;;;;5002122;28;20449;-83
2023/08/03 05:18:04;;;;;;;1.60;1.50;;;24.70;67.60;;;;;;5001639;28;20438;-82
2023/08/03 05:20:34;;;;;;;2.13;1.50;;;24.60;67.50;;;;;;4997855;28;20511;-82
2023/08/03 05:23:05;;;;;;;1.63;1.53;;;24.70;67.30;;;;;;5001754;28;20416;-82
2023/08/03 05:25:36;;;;;;;1.67;1.57;;;24.70;67.60;;;;;;5001899;28;20419;-82
2023/08/03 05:28:07;;;;;;;2.70;1.30;;;24.70;67.60;;;;;;5001374;28;20423;-82
2023/08/03 05:30:35;;;;;;;1.50;1.40;;;24.70;67.50;;;;;;5001274;28;20544;-82
2023/08/03 05:33:06;;;;;;;1.37;1.30;;;24.70;67.30;;;;;;5011084;28;20449;-82
2023/08/03 05:35:35;;;;;;;1.30;1.30;;;24.70;67.40;;;;;;5001906;28;20437;-83
2023/08/03 05:38:03;;;;;;;1.40;1.30;;;24.70;67.50;;;;;;5002547;28;20427;-83
2023/08/03 05:40:33;;;;;;;1.70;1.60;;;24.60;67.30;;;;;;5007135;28;20500;-83
2023/08/03 05:43:01;;;;;;;1.77;1.17;;;24.70;67.30;;;;;;5001232;28;20458;-83
2023/08/03 05:45:36;;;;;;;1.40;1.30;;;24.70;67.20;;;;;;5001084;28;20487;-83
2023/08/03 05:48:11;;;;;;;1.30;1.20;;;24.60;67.30;;;;;;5002771;28;20492;-83
2023/08/03 05:50:41;;;;;;;1.13;1.13;;;24.60;67.20;;;;;;5014332;28;20504;-83
2023/08/03 05:53:09;;;;;;;1.30;1.27;;;24.70;67.30;;;;;;5001247;28;20445;-84
2023/08/03 05:55:38;;;;;;;2.00;1.50;;;24.60;67.20;;;;;;5005943;28;20591;-83
2023/08/03 05:58:08;;;;;;;1.13;1.13;;;24.60;67.20;;;;;;5010006;28;20456;-83
2023/08/03 06:00:36;;;;;;;1.57;1.47;;;24.60;67.40;;;;;;5000809;28;20469;-84
2023/08/03 06:03:05;;;;;;;1.57;1.47;;;24.60;67.40;;;;;;5001274;28;20479;-83
2023/08/03 06:05:40;;;;;;;1.30;1.30;;;24.60;67.30;;;;;;5013303;28;20440;-84
2023/08/03 06:08:11;;;;;;;1.60;1.50;;;24.60;67.30;;;;;;5003105;28;20495;-83
2023/08/03 06:10:39;;;;;;;1.30;1.20;;;24.60;67.00;;;;;;5001695;28;20551;-83
2023/08/03 06:13:13;;;;;;;1.40;1.30;;;24.70;67.20;;;;;;4994230;28;20484;-83
2023/08/03 06:15:43;;;;;;;2.60;1.30;;;24.70;67.30;;;;;;5002125;28;20959;-83
2023/08/03 06:18:19;;;;;;;1.40;1.40;;;24.70;67.30;;;;;;5003163;28;20926;-82
2023/08/03 06:20:49;;;;;;;1.40;1.30;;;24.70;67.10;;;;;;5003885;28;20481;-82
2023/08/03 06:23:20;;;;;;;1.70;1.60;;;24.70;67.10;;;;;;5005761;28;20458;-82
2023/08/03 06:25:54;;;;;;;1.37;1.37;;;24.70;67.30;;;;;;5007497;28;20449;-80
2023/08/03 06:28:24;;;;;;;1.77;1.23;;;24.70;67.20;;;;;;5002827;28;20483;-83
2023/08/03 06:30:59;;;;;;;1.37;1.30;;;24.70;67.20;;;;;;5001687;28;20443;-84
2023/08/03 06:33:30;;;;;;;1.40;1.30;;;24.70;67.20;;;;;;5005288;28;20455;-83
2023/08/03 06:36:00;;;;;;;1.30;1.20;;;24.80;67.20;;;;;;5000619;28;20469;-83
2023/08/03 06:38:34;;;;;;;1.57;1.43;;;24.80;67.20;;;;;;5001507;28;20420;-83
2023/08/03 06:41:08;;;;;;;1.70;1.60;;;24.80;67.10;;;;;;4996680;28;20466;-83
2023/08/03 06:43:37;;;;;;;1.20;1.20;;;24.80;66.90;;;;;;5000623;28;20467;-83
2023/08/03 06:46:06;;;;;;;3.03;1.57;;;24.80;66.90;;;;;;5001511;28;20540;-83
2023/08/03 06:48:38;;;;;;;1.53;1.43;;;24.90;66.90;;;;;;5001788;28;20445;-82
2023/08/03 06:51:09;;;;;;;1.43;1.43;;;24.80;66.90;;;;;;5005088;28;20440;-83
2023/08/03 06:53:39;;;;;;;1.10;1.10;;;24.90;66.80;;;;;;4997475;28;20457;-83
2023/08/03 06:56:09;;;;;;;1.20;1.20;;;24.90;66.60;;;;;;4996989;28;20424;-84
2023/08/03 06:58:37;;;;;;;1.40;1.30;;;25.00;66.60;;;;;;4994136;28;20441;-84
2023/08/03 07:01:05;;;;;;;1.30;1.30;;;25.00;66.30;;;;;;4984436;28;20466;-82
2023/08/03 07:03:33;;;;;;;1.27;1.27;;;25.10;66.30;;;;;;5000370;28;20448;-83
2023/08/03 07:06:04;;;;;;;1.17;1.10;;;25.10;66.10;;;;;;5000063;28;20488;-82
2023/08/03 07:08:35;;;;;;;1.30;1.20;;;25.20;66.20;;;;;;4997207;28;20492;-82
2023/08/03 07:11:03;;;;;;;1.53;1.30;;;25.20;66.20;;;;;;5006926;28;20451;-83
2023/08/03 07:13:31;;;;;;;1.50;1.40;;;25.20;66.10;;;;;;4998477;28;20444;-82
2023/08/03 07:16:06;;;;;;;1.50;1.37;;;25.20;66.10;;;;;;4998499;28;20487;-82
2023/08/03 07:18:34;;;;;;;1.53;1.43;;;25.30;66.20;;;;;;4991553;28;20520;-82
2023/08/03 07:21:07;;;;;;;1.40;1.30;;;25.30;66.00;;;;;;4998039;28;20461;-82
2023/08/03 07:23:36;;;;;;;1.20;1.10;;;25.40;65.90;;;;;;4998698;28;20472;-82
2023/08/03 07:26:04;;;;;;;8.00;1.30;;;25.40;66.00;;;;;;4993632;28;20466;-82
2023/08/03 07:28:32;;;;;;;1.40;1.30;;;25.50;66.00;;;;;;4998301;28;20784;-82
2023/08/03 07:31:01;;;;;;;1.93;1.20;;;25.50;65.70;;;;;;4993743;28;20435;-83
2023/08/03 07:33:31;;;;;;;1.50;1.17;;;25.50;65.80;;;;;;4998485;28;20437;-82
2023/08/03 07:36:04;;;;;;;1.13;1.13;;;25.50;65.90;;;;;;4999631;28;20419;-80
2023/08/03 07:38:41;;;;;;;1.60;1.50;;;25.40;66.00;;;;;;4999503;28;20510;-85
2023/08/03 07:41:10;;;;;;;1.53;1.43;;;25.40;66.80;;;;;;5001008;28;20443;-81
2023/08/03 07:43:40;;;;;;;1.20;1.10;;;25.40;66.20;;;;;;5007262;28;20439;-81
2023/08/03 07:46:11;;;;;;;1.57;1.47;;;25.40;66.20;;;;;;5006058;28;20933;-81
2023/08/03 07:48:43;;;;;;;1.30;1.20;;;25.40;66.20;;;;;;5000534;28;20423;-81
2023/08/03 07:51:12;;;;;;;1.33;1.33;;;25.40;66.30;;;;;;4990046;28;20459;-80
2023/08/03 07:53:42;;;;;;;1.40;1.30;;;25.30;66.20;;;;;;5002610;28;20412;-82
2023/08/03 07:56:15;;;;;;;2.60;1.40;;;25.30;66.50;;;;;;4986815;28;20484;-82
2023/08/03 08:02:34;;;;;;;1.43;1.33;;;25.40;66.80;;;;;;4991183;28;20443;-86
2023/08/03 08:12:51;;;;;;;1.73;1.27;;;25.30;67.00;;;;;;4914054;28;20476;-82
2023/08/03 08:15:20;;;;;;;7.20;1.40;;;25.30;67.10;;;;;;5001172;28;20450;-83
2023/08/03 08:17:51;;;;;;;1.53;1.43;;;25.30;67.00;;;;;;4999145;28;20428;-83
2023/08/03 08:20:23;;;;;;;1.07;1.07;;;25.30;67.70;;;;;;4998139;28;20446;-82
2023/08/03 08:22:53;;;;;;;3.37;1.30;;;25.30;66.90;;;;;;5003059;28;20473;-82
2023/08/03 08:25:22;;;;;;;1.27;1.10;;;25.30;67.10;;;;;;4999954;28;20424;-82
2023/08/03 08:27:55;;;;;;;1.43;1.33;;;25.30;66.80;;;;;;5005537;28;20500;-82
2023/08/03 08:30:29;;;;;;;2.90;1.60;;;25.30;66.90;;;;;;5003452;28;20440;-81
2023/08/03 08:33:01;;;;;;;1.50;1.40;;;25.30;67.10;;;;;;5008928;28;20444;-82
2023/08/03 08:35:34;;;;;;;1.17;1.10;;;25.30;67.00;;;;;;5005044;28;20430;-82
2023/08/03 08:38:05;;;;;;;1.63;1.20;;;25.30;67.00;;;;;;5005765;28;20443;-81
2023/08/03 08:40:35;;;;;;;1.00;1.00;;;25.30;67.00;;;;;;5002728;28;20443;-82
2023/08/03 08:43:16;;;;;;;1.33;1.23;;;25.30;67.00;;;;;;5006312;28;20473;-82
2023/08/03 08:45:50;;;;;;;4.20;1.30;;;25.30;66.90;;;;;;4998854;28;20548;-81
2023/08/03 08:48:21;;;;;;;1.20;1.10;;;25.40;66.90;;;;;;5005093;28;20420;-82
2023/08/03 08:51:12;;;;;;;1.30;1.20;;;25.30;66.90;;;;;;5010914;28;20488;-83
2023/08/03 08:53:54;;;;;;;1.20;1.20;;;25.40;66.80;;;;;;5007128;28;20424;-83
2023/08/03 08:56:32;;;;;;;1.50;1.30;;;25.40;67.00;;;;;;5014263;28;20422;-81
2023/08/03 08:59:11;;;;;;;2.10;1.20;;;25.60;66.90;;;;;;5010937;28;20424;-81
2023/08/03 09:02:11;;;;;;;1.20;1.10;;;25.80;66.80;;;;;;5009279;28;20469;-80
2023/08/03 09:04:43;;;;;;;1.23;1.20;;;26.10;66.70;;;;;;5017141;28;20453;-83
2023/08/03 09:07:17;;;;;;;1.30;1.20;;;26.20;66.40;;;;;;5015940;28;20448;-82
2023/08/03 09:09:47;;;;;;;4.73;1.30;;;26.40;66.00;;;;;;5014215;28;20448;-81
2023/08/03 09:12:24;;;;;;;1.87;1.10;;;26.60;66.00;;;;;;5013988;28;20441;-80
2023/08/03 09:14:55;;;;;;;1.07;1.07;;;26.70;65.60;;;;;;5012354;28;20444;-84
2023/08/03 09:17:23;;;;;;;1.20;1.10;;;26.90;65.20;;;;;;4995584;28;20464;-83
2023/08/03 09:19:52;;;;;;;1.10;1.10;;;27.00;65.20;;;;;;5002711;28;20440;-84
2023/08/03 09:22:23;;;;;;;1.13;1.07;;;27.20;64.70;;;;;;5002834;28;20469;-85
2023/08/03 09:25:00;;;;;;;1.57;1.30;;;27.40;64.50;;;;;;5001985;28;20532;-84
2023/08/03 09:27:29;;;;;;;1.37;1.27;;;27.60;64.30;;;;;;5008756;28;20411;-85
2023/08/03 09:30:01;;;;;;;1.40;1.27;;;27.70;63.90;;;;;;5001803;28;20484;-84
2023/08/03 09:32:31;;;;;;;1.20;1.10;;;27.70;63.40;;;;;;5000532;28;20918;-84
2023/08/03 09:35:00;;;;;;;1.20;1.10;;;27.80;63.70;;;;;;5001417;28;20412;-84
2023/08/03 09:37:34;;;;;;;1.00;1.00;;;27.90;63.70;;;;;;5002801;28;20838;-84
2023/08/03 09:40:07;;;;;;;1.30;1.20;;;28.00;63.40;;;;;;4999936;28;20483;-84
2023/08/03 09:42:34;;;;;;;1.30;1.20;;;28.20;63.60;;;;;;5000818;28;20453;-84
2023/08/03 09:45:06;;;;;;;9.03;1.40;;;28.30;63.00;;;;;;5004703;28;20543;-85
2023/08/03 09:47:58;;;;;;;1.20;1.20;;;28.30;62.60;;;;;;4993651;28;20425;-83
2023/08/03 09:50:34;;;;;;;1.17;1.17;;;28.20;62.50;;;;;;5009029;28;20472;-84
2023/08/03 09:53:04;;;;;;;1.10;1.10;;;28.10;62.60;;;;;;4999964;28;20471;-84
2023/08/03 09:55:47;;;;;;;1.23;1.10;;;28.00;63.00;;;;;;4994016;28;20545;-84
2023/08/03 09:58:19;;;;;;;1.10;1.07;;;27.90;63.30;;;;;;4995451;28;20540;-84
2023/08/03 10:00:52;;;;;;;1.00;1.00;;;27.90;64.00;;;;;;4995201;28;20492;-84
2023/08/03 10:03:25;;;;;;;1.20;1.10;;;28.10;64.50;;;;;;4994679;28;20451;-83
2023/08/03 10:05:57;;;;;;;1.20;1.20;;;28.10;64.20;;;;;;4998168;28;20444;-85
2023/08/03 10:08:31;;;;;;;1.87;1.10;;;28.10;64.10;;;;;;4997587;28;20532;-80
2023/08/03 10:11:03;;;;;;;1.10;1.10;;;28.30;64.50;;;;;;4999861;28;20475;-83
2023/08/03 10:13:34;;;;;;;1.20;1.20;;;28.40;64.20;;;;;;4996165;28;20437;-82
2023/08/03 10:16:06;;;;;;;1.70;1.07;;;28.50;64.00;;;;;;4995725;28;20442;-82
2023/08/03 10:18:35;;;;;;;1.07;1.00;;;28.60;63.40;;;;;;4995338;28;20441;-83
2023/08/03 10:21:09;;;;;;;0.90;0.90;;;28.60;63.00;;;;;;5004779;28;20525;-83
2023/08/03 10:23:38;;;;;;;0.83;0.83;;;28.50;63.10;;;;;;5005985;28;20459;-82
2023/08/03 10:26:07;;;;;;;1.03;1.00;;;28.50;63.10;;;;;;4999521;28;20438;-82
2023/08/03 10:28:46;;;;;;;0.90;0.90;;;28.50;63.40;;;;;;4995860;28;20492;-84
2023/08/03 10:31:16;;;;;;;1.00;1.00;;;28.60;63.60;;;;;;5000900;28;20464;-83
2023/08/03 10:34:12;;;;;;;1.00;0.83;;;28.70;64.00;;;;;;5009270;28;20445;-83
2023/08/03 10:36:48;;;;;;;0.90;0.90;;;28.90;63.40;;;;;;5006687;28;20445;-84
2023/08/03 10:39:37;;;;;;;1.20;1.10;;;29.10;63.00;;;;;;5009551;28;20459;-81
2023/08/03 10:42:18;;;;;;;1.07;1.07;;;29.20;62.60;;;;;;4995919;28;20451;-81
2023/08/03 10:44:46;;;;;;;1.03;0.90;;;29.10;62.20;;;;;;4990295;28;21057;-83
2023/08/03 10:47:23;;;;;;;1.10;1.00;;;29.00;62.90;;;;;;4999771;28;20457;-83
2023/08/03 10:49:53;;;;;;;0.90;0.90;;;29.20;63.20;;;;;;5004669;28;20523;-83
2023/08/03 10:52:23;;;;;;;0.83;0.80;;;29.40;62.10;;;;;;5011445;28;20975;-83
2023/08/03 10:54:51;;;;;;;0.90;0.90;;;29.60;62.60;;;;;;4999993;28;20441;-84
2023/08/03 10:57:24;;;;;;;0.80;0.80;;;29.80;62.00;;;;;;4999441;28;20433;-83
2023/08/03 10:59:53;;;;;;;0.80;0.80;;;30.00;61.70;;;;;;5008217;28;20449;-82
2023/08/03 11:02:25;;;;;;;1.10;1.10;;;30.10;61.20;;;;;;4999084;28;20516;-83
2023/08/03 11:04:55;;;;;;;1.20;1.10;;;30.20;60.80;;;;;;4999633;28;20509;-84
2023/08/03 11:07:26;;;;;;;1.23;0.90;;;30.40;60.70;;;;;;5007703;28;20477;-83
2023/08/03 11:09:55;;;;;;;1.40;1.30;;;30.60;61.30;;;;;;5008291;28;20466;-84
2023/08/03 11:12:24;;;;;;;0.90;0.90;;;30.80;60.30;;;;;;5015721;28;20885;-84
2023/08/03 11:14:53;;;;;;;1.20;1.10;;;30.90;60.10;;;;;;5019483;28;21001;-83
2023/08/03 11:17:24;;;;;;;0.80;0.80;;;31.00;59.60;;;;;;5019508;28;20471;-80
2023/08/03 11:19:53;;;;;;;1.10;1.00;;;31.20;59.70;;;;;;5013845;28;20457;-84
2023/08/03 11:22:21;;;;;;;1.20;1.10;;;31.30;59.50;;;;;;5017436;28;20472;-83
2023/08/03 11:24:56;;;;;;;1.00;1.00;;;31.50;59.40;;;;;;4990876;28;20469;-83
2023/08/03 11:27:24;;;;;;;1.30;1.30;;;31.60;59.20;;;;;;5005988;28;20448;-84
2023/08/03 11:29:53;;;;;;;1.83;1.03;;;31.70;59.20;;;;;;5006816;28;20433;-84
2023/08/03 11:32:26;;;;;;;1.03;1.00;;;31.70;58.60;;;;;;4997996;28;20426;-83
2023/08/03 11:34:58;;;;;;;1.87;1.00;;;31.60;58.70;;;;;;4982044;28;20430;-84
2023/08/03 11:37:29;;;;;;;1.63;1.23;;;31.60;58.60;;;;;;5005011;28;20450;-80
2023/08/03 11:39:58;;;;;;;1.00;1.00;;;31.80;59.00;;;;;;4998554;28;20489;-83
2023/08/03 11:42:29;;;;;;;1.13;1.13;;;31.90;58.80;;;;;;5007702;28;20428;-83
2023/08/03 11:45:07;;;;;;;1.33;1.20;;;31.80;58.50;;;;;;5003258;28;20468;-84
2023/08/03 11:47:50;;;;;;;1.00;1.00;;;31.80;58.50;;;;;;5000740;28;20916;-84
2023/08/03 11:50:24;;;;;;;1.00;1.00;;;31.90;58.60;;;;;;5006511;28;20488;-83
2023/08/03 11:53:11;;;;;;;1.10;1.10;;;32.00;58.70;;;;;;4993511;28;20456;-84
2023/08/03 11:55:46;;;;;;;1.37;1.27;;;32.00;58.10;;;;;;4997365;28;20456;-84
2023/08/03 11:58:19;;;;;;;1.00;1.00;;;32.20;58.30;;;;;;4999161;28;20569;-83
2023/08/03 12:00:59;;;;;;;0.93;0.93;;;32.40;57.80;;;;;;4999181;28;20472;-84
2023/08/03 12:03:43;;;;;;;0.90;0.90;;;32.50;57.50;;;;;;5004508;28;20512;-84
2023/08/03 12:06:29;;;;;;;1.63;1.30;;;32.70;57.50;;;;;;4999412;28;20529;-83
2023/08/03 12:09:21;;;;;;;1.30;1.20;;;32.90;57.30;;;;;;5007444;28;20513;-83
2023/08/03 12:12:00;;;;;;;1.00;0.90;;;33.10;57.00;;;;;;4982183;28;20473;-82
2023/08/03 12:14:32;;;;;;;0.90;0.90;;;33.10;56.60;;;;;;4995190;28;20476;-83
2023/08/03 12:17:03;;;;;;;1.20;1.07;;;33.30;56.40;;;;;;5002976;28;20452;-84
2023/08/03 12:20:05;;;;;;;2.03;1.93;;;33.40;56.60;;;;;;5001087;28;20449;-82
2023/08/03 12:22:42;;;;;;;1.20;1.20;;;33.50;56.20;;;;;;5001417;28;20445;-83
2023/08/03 12:25:13;;;;;;;1.10;1.10;;;33.60;56.10;;;;;;5006331;28;20479;-82
2023/08/03 12:27:51;;;;;;;0.97;0.97;;;33.70;54.70;;;;;;4996242;28;20457;-82
2023/08/03 12:30:34;;;;;;;0.90;0.90;;;33.70;55.10;;;;;;4997273;28;20564;-83
2023/08/03 12:33:06;;;;;;;1.50;1.40;;;33.70;55.10;;;;;;4994125;28;20456;-83
2023/08/03 12:35:37;;;;;;;1.00;1.00;;;33.80;55.50;;;;;;5006547;28;20448;-82
2023/08/03 12:38:05;;;;;;;1.10;1.10;;;33.80;54.90;;;;;;4990652;28;20453;-82
2023/08/03 12:40:34;;;;;;;1.20;1.10;;;33.70;55.30;;;;;;4999772;28;20471;-82
2023/08/03 12:43:02;;;;;;;1.20;1.10;;;33.70;55.50;;;;;;4995313;28;20991;-82
2023/08/03 12:45:34;;;;;;;1.30;1.20;;;33.70;54.80;;;;;;4998488;28;20472;-82
2023/08/03 12:48:03;;;;;;;1.13;1.13;;;33.60;55.30;;;;;;4997708;28;20453;-82
2023/08/03 12:50:45;;;;;;;1.40;1.30;;;33.40;55.80;;;;;;4997990;28;20491;-82
2023/08/03 12:53:26;;;;;;;1.23;1.23;;;33.30;55.40;;;;;;4998006;28;20441;-82
2023/08/03 12:55:57;;;;;;;1.27;1.17;;;33.10;55.70;;;;;;5012858;28;20500;-82
2023/08/03 12:58:26;;;;;;;1.30;1.20;;;33.00;55.80;;;;;;4997439;28;20449;-83
2023/08/03 13:00:56;;;;;;;1.13;1.03;;;32.80;56.20;;;;;;4997953;28;20503;-83
2023/08/03 13:03:30;;;;;;;1.90;1.10;;;32.70;56.10;;;;;;4997287;28;20516;-83
2023/08/03 13:06:16;;;;;;;1.13;0.97;;;32.60;56.70;;;;;;4997357;28;20469;-82
2023/08/03 13:08:46;;;;;;;1.13;1.00;;;32.40;57.20;;;;;;5001339;28;20488;-83
2023/08/03 13:11:17;;;;;;;1.17;1.10;;;32.30;57.30;;;;;;5008086;28;20530;-81
2023/08/03 13:13:46;;;;;;;1.57;1.47;;;32.20;57.60;;;;;;5000839;28;20449;-83
2023/08/03 13:16:15;;;;;;;1.50;1.40;;;32.10;57.90;;;;;;5010358;28;20477;-79
2023/08/03 13:18:59;;;;;;;1.30;1.20;;;32.00;57.80;;;;;;5005468;28;20461;-81
2023/08/03 13:21:40;;;;;;;1.20;1.10;;;31.90;58.10;;;;;;5003632;28;20526;-83
2023/08/03 13:24:43;;;;;;;1.03;0.93;;;31.90;59.20;;;;;;5000009;28;20445;-81